Iver Bright — ZDKU4 — position and weather

sailwx.info

Track history (hours):
 
Tides and Currents Weather Stations Pressure Air Temp Water Temp Dewpoint Dewpoint Depression Visibility Wind Speed Wind Dir Waves Ship Positions

Iver Bright

Last reported at 2014-Jul-26 04:33 UTC. Time now 2014-Jul-29 06:41 UTC.
Position N 36°34' E 015°15'.

Length 111 m; draft 5.1 m.

Type: Tanker. MMSI: 236111811.

Date/timePositionNaut miles runAvg speedWind from/ knotsBaromVisibWave heightAir tempDewpointWater temp
2014-Jul-26 04:33N 36°34' E 015°15'9 9.2
2014-Jul-26 03:33N 36°31' E 015°04'10 9.7
2014-Jul-26 02:33N 36°28' E 014°53'1010.1
2014-Jul-26 01:33N 36°24' E 014°41'1010.1
2014-Jul-26 00:33N 36°27' E 014°29'10 9.7
2014-Jul-25 23:33N 36°30' E 014°17'9 9.4
2014-Jul-25 22:33N 36°32' E 014°06'10 9.5
2014-Jul-25 21:33N 36°35' E 013°55'10 9.5
2014-Jul-25 20:33N 36°38' E 013°43'10 9.5
2014-Jul-25 19:33N 36°41' E 013°32'10 9.7
2014-Jul-25 18:33N 36°43' E 013°20'10 9.7
2014-Jul-25 17:33N 36°46' E 013°09'10 9.8
2014-Jul-25 16:33N 36°49' E 012°57'1010.0
2014-Jul-25 15:33N 36°52' E 012°45'10 9.9
2014-Jul-25 14:33N 36°55' E 012°33'1010.2
2014-Jul-25 13:33N 36°58' E 012°21'10 9.7
2014-Jul-25 12:33N 37°01' E 012°10'9 9.3
2014-Jul-25 11:33N 37°04' E 011°58'9 9.4
2014-Jul-25 10:33N 37°06' E 011°47'30 9.4
2014-Jul-25 07:20N 37°20' E 011°13'7 9.1
2014-Jul-25 06:33N 37°24' E 011°06'10 9.0
2014-Jul-25 05:29N 37°27' E 010°54'9 9.3
2014-Jul-25 04:33N 37°30' E 010°44'1010.0
2014-Jul-25 03:33N 37°33' E 010°32'1010.0
2014-Jul-25 02:32N 37°34' E 010°19'1010.5
2014-Jul-25 01:33N 37°34' E 010°06'1010.4
2014-Jul-25 00:33N 37°32' E 009°53'1110.6
2014-Jul-24 23:33N 37°29' E 009°40'1010.1
2014-Jul-24 22:33N 37°26' E 009°28'10 9.5
2014-Jul-24 21:33N 37°23' E 009°17'9 9.3
2014-Jul-24 20:33N 37°20' E 009°06'11 9.3
2014-Jul-24 19:23N 37°18' E 008°52'8 9.1
2014-Jul-24 18:33N 37°18' E 008°43'9 8.9
2014-Jul-24 17:33N 37°18' E 008°32'9 9.0
2014-Jul-24 16:33N 37°18' E 008°20'9 9.0
2014-Jul-24 15:33N 37°18' E 008°09'9 9.2
2014-Jul-24 14:33N 37°18' E 007°57'1510.0
2014-Jul-24 13:03N 37°18' E 007°39'63 9.5
2014-Jul-24 06:23N 37°18' E 006°19'36 9.2
2014-Jul-24 02:28N 37°18' E 005°34'8 9.1
2014-Jul-24 01:33N 37°18' E 005°23'11 9.0
2014-Jul-24 00:19N 37°18' E 005°09'7 9.0
2014-Jul-23 23:33N 37°18' E 005°01'9 9.1
2014-Jul-23 22:33N 37°16' E 004°49'11 9.6
2014-Jul-23 21:25N 37°14' E 004°36'8 8.8
2014-Jul-23 20:32N 37°12' E 004°26'12 9.5
2014-Jul-23 19:14N 37°10' E 004°11'6 8.8
2014-Jul-23 18:31N 37°08' E 004°03'1010.0
2014-Jul-23 17:30N 37°06' E 003°51'9 9.4
2014-Jul-23 16:32N 37°04' E 003°40'10 9.8
2014-Jul-23 15:33N 37°02' E 003°28'1010.1
2014-Jul-23 14:34N 36°59' E 003°16'9 9.2
2014-Jul-23 13:33N 36°52' E 003°09'7 0.3
2014-Jul-22 15:33N 36°46' E 003°06'0 0.0
2014-Jul-22 14:33N 36°46' E 003°06'0 0.0
2014-Jul-22 13:33N 36°46' E 003°06'0 0.0
2014-Jul-22 12:33N 36°46' E 003°06'2 0.4
2014-Jul-22 06:16N 36°48' E 003°07'40711.1
2014-Jul-20 17:32N 37°03' E 011°36'1212.1
2014-Jul-20 16:33N 36°53' E 011°43'1312.6
2014-Jul-20 15:33N 36°41' E 011°47'1312.8
2014-Jul-20 14:33N 36°28' E 011°49'1312.9
2014-Jul-20 13:33N 36°15' E 011°51'1312.6
2014-Jul-20 12:33N 36°03' E 011°53'1612.7
2014-Jul-20 11:16N 35°46' E 011°56'4712.5
2014-Jul-20 07:32N 35°00' E 012°04'1212.2
2014-Jul-20 06:33N 34°48' E 012°05'1010.4
2014-Jul-20 05:33N 34°41' E 011°57'1212.1
2014-Jul-20 04:33N 34°35' E 011°43'2612.0
2014-Jul-20 02:25N 34°24' E 011°16'1112.4
2014-Jul-20 01:33N 34°19' E 011°04'1110.7
2014-Jul-20 00:33N 34°25' E 010°53'146 5.6
2014-Jul-18 22:27N 35°34' E 013°30'1212.7
2014-Jul-18 21:33N 35°43' E 013°39'1212.4
2014-Jul-18 20:33N 35°53' E 013°47'1212.2
2014-Jul-18 19:33N 36°03' E 013°56'1211.9
2014-Jul-18 18:33N 36°10' E 014°08'1212.4
2014-Jul-18 17:33N 36°15' E 014°22'1212.1
2014-Jul-18 16:33N 36°20' E 014°36'1211.7
2014-Jul-18 15:33N 36°25' E 014°49'1311.9
2014-Jul-18 14:30N 36°30' E 015°03'  
Track history (hours):
 
Tides and Currents Weather Stations Pressure Air Temp Water Temp Dewpoint Dewpoint Depression Visibility Wind Speed Wind Dir Waves Ship Positions

Iver Bright

Last reported at 2014-Jul-26 04:33 UTC. Time now 2014-Jul-29 06:41 UTC.
Position N 36°34' E 015°15'.

Length 111 m; draft 5.1 m.

Type: Tanker. MMSI: 236111811.

Date/timePositionNaut miles runAvg speedWind from/ knotsBaromVisibWave heightAir tempDewpointWater temp
2014-Jul-26 04:33N 36°34' E 015°15'9 9.2
2014-Jul-26 03:33N 36°31' E 015°04'10 9.7
2014-Jul-26 02:33N 36°28' E 014°53'1010.1
2014-Jul-26 01:33N 36°24' E 014°41'1010.1
2014-Jul-26 00:33N 36°27' E 014°29'10 9.7
2014-Jul-25 23:33N 36°30' E 014°17'9 9.4
2014-Jul-25 22:33N 36°32' E 014°06'10 9.5
2014-Jul-25 21:33N 36°35' E 013°55'10 9.5
2014-Jul-25 20:33N 36°38' E 013°43'10 9.5
2014-Jul-25 19:33N 36°41' E 013°32'10 9.7
2014-Jul-25 18:33N 36°43' E 013°20'10 9.7
2014-Jul-25 17:33N 36°46' E 013°09'10 9.8
2014-Jul-25 16:33N 36°49' E 012°57'1010.0
2014-Jul-25 15:33N 36°52' E 012°45'10 9.9
2014-Jul-25 14:33N 36°55' E 012°33'1010.2
2014-Jul-25 13:33N 36°58' E 012°21'10 9.7
2014-Jul-25 12:33N 37°01' E 012°10'9 9.3
2014-Jul-25 11:33N 37°04' E 011°58'9 9.4
2014-Jul-25 10:33N 37°06' E 011°47'30 9.4
2014-Jul-25 07:20N 37°20' E 011°13'7 9.1
2014-Jul-25 06:33N 37°24' E 011°06'10 9.0
2014-Jul-25 05:29N 37°27' E 010°54'9 9.3
2014-Jul-25 04:33N 37°30' E 010°44'1010.0
2014-Jul-25 03:33N 37°33' E 010°32'1010.0
2014-Jul-25 02:32N 37°34' E 010°19'1010.5
2014-Jul-25 01:33N 37°34' E 010°06'1010.4
2014-Jul-25 00:33N 37°32' E 009°53'1110.6
2014-Jul-24 23:33N 37°29' E 009°40'1010.1
2014-Jul-24 22:33N 37°26' E 009°28'10 9.5
2014-Jul-24 21:33N 37°23' E 009°17'9 9.3
2014-Jul-24 20:33N 37°20' E 009°06'11 9.3
2014-Jul-24 19:23N 37°18' E 008°52'8 9.1
2014-Jul-24 18:33N 37°18' E 008°43'9 8.9
2014-Jul-24 17:33N 37°18' E 008°32'9 9.0
2014-Jul-24 16:33N 37°18' E 008°20'9 9.0
2014-Jul-24 15:33N 37°18' E 008°09'9 9.2
2014-Jul-24 14:33N 37°18' E 007°57'1510.0
2014-Jul-24 13:03N 37°18' E 007°39'63 9.5
2014-Jul-24 06:23N 37°18' E 006°19'36 9.2
2014-Jul-24 02:28N 37°18' E 005°34'8 9.1
2014-Jul-24 01:33N 37°18' E 005°23'11 9.0
2014-Jul-24 00:19N 37°18' E 005°09'7 9.0
2014-Jul-23 23:33N 37°18' E 005°01'9 9.1
2014-Jul-23 22:33N 37°16' E 004°49'11 9.6
2014-Jul-23 21:25N 37°14' E 004°36'8 8.8
2014-Jul-23 20:32N 37°12' E 004°26'12 9.5
2014-Jul-23 19:14N 37°10' E 004°11'6 8.8
2014-Jul-23 18:31N 37°08' E 004°03'1010.0
2014-Jul-23 17:30N 37°06' E 003°51'9 9.4
2014-Jul-23 16:32N 37°04' E 003°40'10 9.8
2014-Jul-23 15:33N 37°02' E 003°28'1010.1
2014-Jul-23 14:34N 36°59' E 003°16'9 9.2
2014-Jul-23 13:33N 36°52' E 003°09'7 0.3
2014-Jul-22 15:33N 36°46' E 003°06'0 0.0
2014-Jul-22 14:33N 36°46' E 003°06'0 0.0
2014-Jul-22 13:33N 36°46' E 003°06'0 0.0
2014-Jul-22 12:33N 36°46' E 003°06'2 0.4
2014-Jul-22 06:16N 36°48' E 003°07'40711.1
2014-Jul-20 17:32N 37°03' E 011°36'1212.1
2014-Jul-20 16:33N 36°53' E 011°43'1312.6
2014-Jul-20 15:33N 36°41' E 011°47'1312.8
2014-Jul-20 14:33N 36°28' E 011°49'1312.9
2014-Jul-20 13:33N 36°15' E 011°51'1312.6
2014-Jul-20 12:33N 36°03' E 011°53'1612.7
2014-Jul-20 11:16N 35°46' E 011°56'4712.5
2014-Jul-20 07:32N 35°00' E 012°04'1212.2
2014-Jul-20 06:33N 34°48' E 012°05'1010.4
2014-Jul-20 05:33N 34°41' E 011°57'1212.1
2014-Jul-20 04:33N 34°35' E 011°43'2612.0
2014-Jul-20 02:25N 34°24' E 011°16'1112.4
2014-Jul-20 01:33N 34°19' E 011°04'1110.7
2014-Jul-20 00:33N 34°25' E 010°53'146 5.6
2014-Jul-18 22:27N 35°34' E 013°30'1212.7
2014-Jul-18 21:33N 35°43' E 013°39'1212.4
2014-Jul-18 20:33N 35°53' E 013°47'1212.2
2014-Jul-18 19:33N 36°03' E 013°56'1211.9
2014-Jul-18 18:33N 36°10' E 014°08'1212.4
2014-Jul-18 17:33N 36°15' E 014°22'1212.1
2014-Jul-18 16:33N 36°20' E 014°36'1211.7
2014-Jul-18 15:33N 36°25' E 014°49'1311.9
2014-Jul-18 14:30N 36°30' E 015°03'  

Dump ship's entire track history